sensor_id;sensor_type;location;lat;lon;timestamp;temperature;humidity
60495;DHT22;46342;49.046;11.920;2023-05-28T00:01:08;15.80;37.70
60495;DHT22;46342;49.046;11.920;2023-05-28T00:03:33;15.70;37.70
60495;DHT22;46342;49.046;11.920;2023-05-28T00:06:01;15.70;37.80
60495;DHT22;46342;49.046;11.920;2023-05-28T00:08:27;15.60;37.90
60495;DHT22;46342;49.046;11.920;2023-05-28T00:10:52;15.60;37.90
60495;DHT22;46342;49.046;11.920;2023-05-28T00:13:29;15.50;37.90
60495;DHT22;46342;49.046;11.920;2023-05-28T00:15:55;15.50;38.00
60495;DHT22;46342;49.046;11.920;2023-05-28T00:18:20;15.40;38.10
60495;DHT22;46342;49.046;11.920;2023-05-28T00:20:46;15.40;38.10
60495;DHT22;46342;49.046;11.920;2023-05-28T00:23:13;15.40;38.30
60495;DHT22;46342;49.046;11.920;2023-05-28T00:25:40;15.40;38.30
60495;DHT22;46342;49.046;11.920;2023-05-28T00:28:05;15.30;38.40
60495;DHT22;46342;49.046;11.920;2023-05-28T00:30:31;15.30;38.40
60495;DHT22;46342;49.046;11.920;2023-05-28T00:32:56;15.20;38.40
60495;DHT22;46342;49.046;11.920;2023-05-28T00:35:22;15.20;38.50
60495;DHT22;46342;49.046;11.920;2023-05-28T00:37:48;15.20;38.60
60495;DHT22;46342;49.046;11.920;2023-05-28T00:40:13;15.10;38.60
60495;DHT22;46342;49.046;11.920;2023-05-28T00:42:43;15.10;38.70
60495;DHT22;46342;49.046;11.920;2023-05-28T00:45:10;15.00;38.70
60495;DHT22;46342;49.046;11.920;2023-05-28T00:47:37;15.00;38.80
60495;DHT22;46342;49.046;11.920;2023-05-28T00:50:03;15.00;38.90
60495;DHT22;46342;49.046;11.920;2023-05-28T00:52:31;14.90;38.90
60495;DHT22;46342;49.046;11.920;2023-05-28T00:54:56;14.90;39.00
60495;DHT22;46342;49.046;11.920;2023-05-28T00:57:23;14.90;39.10
60495;DHT22;46342;49.046;11.920;2023-05-28T00:59:50;14.80;39.20
60495;DHT22;46342;49.046;11.920;2023-05-28T01:02:16;14.80;39.40
60495;DHT22;46342;49.046;11.920;2023-05-28T01:04:41;14.80;39.30
60495;DHT22;46342;49.046;11.920;2023-05-28T01:07:07;14.70;39.30
60495;DHT22;46342;49.046;11.920;2023-05-28T01:09:33;14.70;39.40
60495;DHT22;46342;49.046;11.920;2023-05-28T01:11:59;14.70;39.50
60495;DHT22;46342;49.046;11.920;2023-05-28T01:14:26;14.70;39.60
60495;DHT22;46342;49.046;11.920;2023-05-28T01:16:52;14.60;39.50
60495;DHT22;46342;49.046;11.920;2023-05-28T01:19:19;14.60;39.60
60495;DHT22;46342;49.046;11.920;2023-05-28T01:21:53;14.60;39.80
60495;DHT22;46342;49.046;11.920;2023-05-28T01:24:21;14.60;40.30
60495;DHT22;46342;49.046;11.920;2023-05-28T01:26:48;14.50;39.80
60495;DHT22;46342;49.046;11.920;2023-05-28T01:29:18;14.60;39.90
60495;DHT22;46342;49.046;11.920;2023-05-28T01:31:44;14.50;40.10
60495;DHT22;46342;49.046;11.920;2023-05-28T01:34:11;14.40;39.90
60495;DHT22;46342;49.046;11.920;2023-05-28T01:36:48;14.40;40.00
60495;DHT22;46342;49.046;11.920;2023-05-28T01:39:16;14.40;40.40
60495;DHT22;46342;49.046;11.920;2023-05-28T01:41:45;14.30;40.00
60495;DHT22;46342;49.046;11.920;2023-05-28T01:44:12;14.30;40.20
60495;DHT22;46342;49.046;11.920;2023-05-28T01:46:39;14.30;40.30
60495;DHT22;46342;49.046;11.920;2023-05-28T01:49:06;14.30;41.10
60495;DHT22;46342;49.046;11.920;2023-05-28T01:51:31;14.20;40.00
60495;DHT22;46342;49.046;11.920;2023-05-28T01:53:58;14.20;40.10
60495;DHT22;46342;49.046;11.920;2023-05-28T01:56:23;14.10;40.20
60495;DHT22;46342;49.046;11.920;2023-05-28T01:58:49;14.10;40.30
60495;DHT22;46342;49.046;11.920;2023-05-28T02:01:20;14.10;40.50
60495;DHT22;46342;49.046;11.920;2023-05-28T02:03:47;14.00;40.80
60495;DHT22;46342;49.046;11.920;2023-05-28T02:06:12;14.00;40.50
60495;DHT22;46342;49.046;11.920;2023-05-28T02:08:38;14.00;40.60
60495;DHT22;46342;49.046;11.920;2023-05-28T02:11:03;13.90;40.60
60495;DHT22;46342;49.046;11.920;2023-05-28T02:13:29;13.90;40.70
60495;DHT22;46342;49.046;11.920;2023-05-28T02:15:55;13.90;40.80
60495;DHT22;46342;49.046;11.920;2023-05-28T02:18:21;13.80;40.80
60495;DHT22;46342;49.046;11.920;2023-05-28T02:20:47;13.80;40.80
60495;DHT22;46342;49.046;11.920;2023-05-28T02:23:12;13.80;40.90
60495;DHT22;46342;49.046;11.920;2023-05-28T02:25:38;13.70;40.90
60495;DHT22;46342;49.046;11.920;2023-05-28T02:28:04;13.70;41.00
60495;DHT22;46342;49.046;11.920;2023-05-28T02:30:29;13.70;41.10
60495;DHT22;46342;49.046;11.920;2023-05-28T02:32:55;13.60;41.10
60495;DHT22;46342;49.046;11.920;2023-05-28T02:35:21;13.60;41.20
60495;DHT22;46342;49.046;11.920;2023-05-28T02:37:48;13.60;41.20
60495;DHT22;46342;49.046;11.920;2023-05-28T02:40:13;13.60;41.30
60495;DHT22;46342;49.046;11.920;2023-05-28T02:42:40;13.50;41.30
60495;DHT22;46342;49.046;11.920;2023-05-28T02:45:05;13.50;41.40
60495;DHT22;46342;49.046;11.920;2023-05-28T02:47:32;13.50;41.50
60495;DHT22;46342;49.046;11.920;2023-05-28T02:49:57;13.50;41.60
60495;DHT22;46342;49.046;11.920;2023-05-28T02:52:23;13.40;41.60
60495;DHT22;46342;49.046;11.920;2023-05-28T02:54:48;13.40;41.70
60495;DHT22;46342;49.046;11.920;2023-05-28T02:57:14;13.40;41.70
60495;DHT22;46342;49.046;11.920;2023-05-28T02:59:39;13.40;41.80
60495;DHT22;46342;49.046;11.920;2023-05-28T03:02:05;13.30;41.80
60495;DHT22;46342;49.046;11.920;2023-05-28T03:04:31;13.30;41.80
60495;DHT22;46342;49.046;11.920;2023-05-28T03:06:56;13.30;41.80
60495;DHT22;46342;49.046;11.920;2023-05-28T03:09:22;13.30;42.00
60495;DHT22;46342;49.046;11.920;2023-05-28T03:11:48;13.30;42.00
60495;DHT22;46342;49.046;11.920;2023-05-28T03:14:13;13.20;42.60
60495;DHT22;46342;49.046;11.920;2023-05-28T03:16:39;13.20;42.10
60495;DHT22;46342;49.046;11.920;2023-05-28T03:19:04;13.20;42.10
60495;DHT22;46342;49.046;11.920;2023-05-28T03:21:30;13.20;42.20
60495;DHT22;46342;49.046;11.920;2023-05-28T03:23:56;13.20;42.30
60495;DHT22;46342;49.046;11.920;2023-05-28T03:26:22;13.10;42.20
60495;DHT22;46342;49.046;11.920;2023-05-28T03:28:48;13.10;42.30
60495;DHT22;46342;49.046;11.920;2023-05-28T03:31:14;13.10;42.30
60495;DHT22;46342;49.046;11.920;2023-05-28T03:33:39;13.10;42.50
60495;DHT22;46342;49.046;11.920;2023-05-28T03:36:05;13.10;42.50
60495;DHT22;46342;49.046;11.920;2023-05-28T03:38:32;13.00;42.50
60495;DHT22;46342;49.046;11.920;2023-05-28T03:40:58;13.00;42.50
60495;DHT22;46342;49.046;11.920;2023-05-28T03:43:23;13.00;42.60
60495;DHT22;46342;49.046;11.920;2023-05-28T03:45:49;13.00;42.60
60495;DHT22;46342;49.046;11.920;2023-05-28T03:48:14;12.90;42.60
60495;DHT22;46342;49.046;11.920;2023-05-28T03:50:40;12.90;42.70
60495;DHT22;46342;49.046;11.920;2023-05-28T03:53:06;12.90;42.70
60495;DHT22;46342;49.046;11.920;2023-05-28T03:55:33;12.90;42.80
60495;DHT22;46342;49.046;11.920;2023-05-28T03:57:58;12.90;43.00
60495;DHT22;46342;49.046;11.920;2023-05-28T04:00:24;12.90;42.90
60495;DHT22;46342;49.046;11.920;2023-05-28T04:02:50;13.00;43.10
60495;DHT22;46342;49.046;11.920;2023-05-28T04:05:15;12.80;43.00
60495;DHT22;46342;49.046;11.920;2023-05-28T04:07:41;12.80;43.10
60495;DHT22;46342;49.046;11.920;2023-05-28T04:10:07;12.80;43.20
60495;DHT22;46342;49.046;11.920;2023-05-28T04:12:33;12.80;43.30
60495;DHT22;46342;49.046;11.920;2023-05-28T04:14:58;12.90;43.40
60495;DHT22;46342;49.046;11.920;2023-05-28T04:17:26;12.80;43.40
60495;DHT22;46342;49.046;11.920;2023-05-28T04:19:55;12.70;43.30
60495;DHT22;46342;49.046;11.920;2023-05-28T04:22:21;12.70;43.70
60495;DHT22;46342;49.046;11.920;2023-05-28T04:24:49;12.70;43.40
60495;DHT22;46342;49.046;11.920;2023-05-28T04:27:17;12.80;44.60
60495;DHT22;46342;49.046;11.920;2023-05-28T04:29:42;12.70;43.20
60495;DHT22;46342;49.046;11.920;2023-05-28T04:32:09;12.70;43.30
60495;DHT22;46342;49.046;11.920;2023-05-28T04:34:35;12.70;43.40
60495;DHT22;46342;49.046;11.920;2023-05-28T04:37:02;12.70;43.60
60495;DHT22;46342;49.046;11.920;2023-05-28T04:39:29;12.70;43.60
60495;DHT22;46342;49.046;11.920;2023-05-28T04:41:55;12.60;43.60
60495;DHT22;46342;49.046;11.920;2023-05-28T04:44:21;12.70;43.80
60495;DHT22;46342;49.046;11.920;2023-05-28T04:46:51;12.70;43.90
60495;DHT22;46342;49.046;11.920;2023-05-28T04:49:17;12.70;44.00
60495;DHT22;46342;49.046;11.920;2023-05-28T04:51:42;12.80;44.10
60495;DHT22;46342;49.046;11.920;2023-05-28T04:54:08;12.70;44.10
60495;DHT22;46342;49.046;11.920;2023-05-28T04:56:35;12.70;44.20
60495;DHT22;46342;49.046;11.920;2023-05-28T04:59:00;12.70;44.30
60495;DHT22;46342;49.046;11.920;2023-05-28T05:01:30;12.80;44.30
60495;DHT22;46342;49.046;11.920;2023-05-28T05:03:57;12.80;44.40
60495;DHT22;46342;49.046;11.920;2023-05-28T05:06:23;12.80;44.40
60495;DHT22;46342;49.046;11.920;2023-05-28T05:08:49;12.80;44.50
60495;DHT22;46342;49.046;11.920;2023-05-28T05:11:15;12.90;44.70
60495;DHT22;46342;49.046;11.920;2023-05-28T05:13:40;12.90;44.80
60495;DHT22;46342;49.046;11.920;2023-05-28T05:16:06;12.90;44.80
60495;DHT22;46342;49.046;11.920;2023-05-28T05:18:32;12.90;44.90
60495;DHT22;46342;49.046;11.920;2023-05-28T05:20:57;13.00;45.10
60495;DHT22;46342;49.046;11.920;2023-05-28T05:23:23;13.00;45.70
60495;DHT22;46342;49.046;11.920;2023-05-28T05:25:48;13.00;45.20
60495;DHT22;46342;49.046;11.920;2023-05-28T05:28:14;13.00;45.20
60495;DHT22;46342;49.046;11.920;2023-05-28T05:30:40;13.10;45.30
60495;DHT22;46342;49.046;11.920;2023-05-28T05:33:05;13.10;45.40
60495;DHT22;46342;49.046;11.920;2023-05-28T05:35:31;13.20;45.50
60495;DHT22;46342;49.046;11.920;2023-05-28T05:37:56;13.20;45.60
60495;DHT22;46342;49.046;11.920;2023-05-28T05:40:22;13.30;45.60
60495;DHT22;46342;49.046;11.920;2023-05-28T05:42:47;13.40;45.70
60495;DHT22;46342;49.046;11.920;2023-05-28T05:45:13;13.40;45.60
60495;DHT22;46342;49.046;11.920;2023-05-28T05:47:38;13.50;45.70
60495;DHT22;46342;49.046;11.920;2023-05-28T05:50:04;13.60;45.80
60495;DHT22;46342;49.046;11.920;2023-05-28T05:52:30;13.70;45.90
60495;DHT22;46342;49.046;11.920;2023-05-28T05:54:56;13.80;46.10
60495;DHT22;46342;49.046;11.920;2023-05-28T05:57:21;13.80;46.00
60495;DHT22;46342;49.046;11.920;2023-05-28T05:59:47;13.90;46.60
60495;DHT22;46342;49.046;11.920;2023-05-28T06:02:13;14.10;46.20
60495;DHT22;46342;49.046;11.920;2023-05-28T06:04:38;14.10;46.00
60495;DHT22;46342;49.046;11.920;2023-05-28T06:07:04;14.20;46.10
60495;DHT22;46342;49.046;11.920;2023-05-28T06:09:32;14.30;46.10
60495;DHT22;46342;49.046;11.920;2023-05-28T06:11:58;14.30;46.00
60495;DHT22;46342;49.046;11.920;2023-05-28T06:14:26;14.40;46.10
60495;DHT22;46342;49.046;11.920;2023-05-28T06:16:52;14.50;46.20
60495;DHT22;46342;49.046;11.920;2023-05-28T06:19:17;14.60;46.10
60495;DHT22;46342;49.046;11.920;2023-05-28T06:21:43;14.70;46.20
60495;DHT22;46342;49.046;11.920;2023-05-28T06:24:08;14.70;46.10
60495;DHT22;46342;49.046;11.920;2023-05-28T06:26:34;14.80;46.10
60495;DHT22;46342;49.046;11.920;2023-05-28T06:29:00;14.90;46.80
60495;DHT22;46342;49.046;11.920;2023-05-28T06:31:25;14.90;46.10
60495;DHT22;46342;49.046;11.920;2023-05-28T06:33:51;15.10;46.10
60495;DHT22;46342;49.046;11.920;2023-05-28T06:36:16;15.20;46.10
60495;DHT22;46342;49.046;11.920;2023-05-28T06:38:42;15.20;46.10
60495;DHT22;46342;49.046;11.920;2023-05-28T06:41:08;15.30;46.10
60495;DHT22;46342;49.046;11.920;2023-05-28T06:43:35;15.40;46.20
60495;DHT22;46342;49.046;11.920;2023-05-28T06:46:01;15.40;46.10
60495;DHT22;46342;49.046;11.920;2023-05-28T06:48:27;15.50;46.10
60495;DHT22;46342;49.046;11.920;2023-05-28T06:50:52;15.60;46.10
60495;DHT22;46342;49.046;11.920;2023-05-28T06:53:18;15.70;46.10
60495;DHT22;46342;49.046;11.920;2023-05-28T06:55:43;15.70;46.00
60495;DHT22;46342;49.046;11.920;2023-05-28T06:58:09;15.80;46.10
60495;DHT22;46342;49.046;11.920;2023-05-28T07:00:35;15.90;46.10
60495;DHT22;46342;49.046;11.920;2023-05-28T07:03:00;16.00;46.10
60495;DHT22;46342;49.046;11.920;2023-05-28T07:05:26;16.00;46.00
60495;DHT22;46342;49.046;11.920;2023-05-28T07:07:51;16.10;46.10
60495;DHT22;46342;49.046;11.920;2023-05-28T07:10:17;16.20;46.10
60495;DHT22;46342;49.046;11.920;2023-05-28T07:12:43;16.30;46.10
60495;DHT22;46342;49.046;11.920;2023-05-28T07:15:08;16.40;46.30
60495;DHT22;46342;49.046;11.920;2023-05-28T07:17:35;16.50;46.30
60495;DHT22;46342;49.046;11.920;2023-05-28T07:20:01;16.50;46.20
60495;DHT22;46342;49.046;11.920;2023-05-28T07:22:26;16.60;46.20
60495;DHT22;46342;49.046;11.920;2023-05-28T07:24:52;16.70;46.20
60495;DHT22;46342;49.046;11.920;2023-05-28T07:27:17;16.80;46.10
60495;DHT22;46342;49.046;11.920;2023-05-28T07:29:43;16.90;46.10
60495;DHT22;46342;49.046;11.920;2023-05-28T07:32:08;17.00;46.00
60495;DHT22;46342;49.046;11.920;2023-05-28T07:34:34;17.20;46.70
60495;DHT22;46342;49.046;11.920;2023-05-28T07:37:00;17.20;46.10
60495;DHT22;46342;49.046;11.920;2023-05-28T07:39:25;17.30;46.20
60495;DHT22;46342;49.046;11.920;2023-05-28T07:41:51;17.40;46.10
60495;DHT22;46342;49.046;11.920;2023-05-28T07:44:16;17.50;46.10
60495;DHT22;46342;49.046;11.920;2023-05-28T07:46:42;17.60;46.10
60495;DHT22;46342;49.046;11.920;2023-05-28T07:49:07;17.70;46.20
60495;DHT22;46342;49.046;11.920;2023-05-28T07:51:33;17.80;46.30
60495;DHT22;46342;49.046;11.920;2023-05-28T07:53:59;17.90;46.20
60495;DHT22;46342;49.046;11.920;2023-05-28T07:56:24;18.00;46.20
60495;DHT22;46342;49.046;11.920;2023-05-28T07:58:50;18.10;46.20
60495;DHT22;46342;49.046;11.920;2023-05-28T08:01:16;18.20;46.10
60495;DHT22;46342;49.046;11.920;2023-05-28T08:03:41;18.30;45.90
60495;DHT22;46342;49.046;11.920;2023-05-28T08:06:07;18.40;45.70
60495;DHT22;46342;49.046;11.920;2023-05-28T08:08:34;18.50;45.70
60495;DHT22;46342;49.046;11.920;2023-05-28T08:11:00;18.60;45.60
60495;DHT22;46342;49.046;11.920;2023-05-28T08:13:25;18.80;45.50
60495;DHT22;46342;49.046;11.920;2023-05-28T08:15:51;18.90;45.50
60495;DHT22;46342;49.046;11.920;2023-05-28T08:18:17;19.00;45.40
60495;DHT22;46342;49.046;11.920;2023-05-28T08:20:43;19.10;45.30
60495;DHT22;46342;49.046;11.920;2023-05-28T08:23:09;19.10;45.20
60495;DHT22;46342;49.046;11.920;2023-05-28T08:25:34;19.30;45.20
60495;DHT22;46342;49.046;11.920;2023-05-28T08:28:00;19.40;45.20
60495;DHT22;46342;49.046;11.920;2023-05-28T08:30:26;19.50;45.10
60495;DHT22;46342;49.046;11.920;2023-05-28T08:32:51;19.60;44.90
60495;DHT22;46342;49.046;11.920;2023-05-28T08:35:17;19.70;44.70
60495;DHT22;46342;49.046;11.920;2023-05-28T08:37:43;19.80;44.60
60495;DHT22;46342;49.046;11.920;2023-05-28T08:40:09;19.90;44.50
60495;DHT22;46342;49.046;11.920;2023-05-28T08:42:35;20.00;44.20
60495;DHT22;46342;49.046;11.920;2023-05-28T08:45:04;20.10;44.00
60495;DHT22;46342;49.046;11.920;2023-05-28T08:47:33;20.10;43.50
60495;DHT22;46342;49.046;11.920;2023-05-28T08:50:03;20.20;43.30
60495;DHT22;46342;49.046;11.920;2023-05-28T08:52:31;20.30;43.30
60495;DHT22;46342;49.046;11.920;2023-05-28T08:55:00;20.40;43.40
60495;DHT22;46342;49.046;11.920;2023-05-28T08:57:29;20.50;43.20
60495;DHT22;46342;49.046;11.920;2023-05-28T08:59:55;20.60;43.30
60495;DHT22;46342;49.046;11.920;2023-05-28T09:02:24;20.70;43.40
60495;DHT22;46342;49.046;11.920;2023-05-28T09:04:51;20.90;43.30
60495;DHT22;46342;49.046;11.920;2023-05-28T09:07:16;20.90;43.30
60495;DHT22;46342;49.046;11.920;2023-05-28T09:09:42;21.10;43.20
60495;DHT22;46342;49.046;11.920;2023-05-28T09:12:12;21.10;43.00
60495;DHT22;46342;49.046;11.920;2023-05-28T09:14:39;21.30;42.70
60495;DHT22;46342;49.046;11.920;2023-05-28T09:17:09;21.40;42.80
60495;DHT22;46342;49.046;11.920;2023-05-28T09:19:35;21.50;42.70
60495;DHT22;46342;49.046;11.920;2023-05-28T09:22:01;21.60;42.50
60495;DHT22;46342;49.046;11.920;2023-05-28T09:24:29;21.60;42.40
60495;DHT22;46342;49.046;11.920;2023-05-28T09:26:56;21.80;42.40
60495;DHT22;46342;49.046;11.920;2023-05-28T09:29:23;21.80;42.30
60495;DHT22;46342;49.046;11.920;2023-05-28T09:31:56;22.00;42.10
60495;DHT22;46342;49.046;11.920;2023-05-28T09:34:29;22.10;41.60
60495;DHT22;46342;49.046;11.920;2023-05-28T09:37:02;22.20;41.30
60495;DHT22;46342;49.046;11.920;2023-05-28T09:39:28;22.30;41.40
60495;DHT22;46342;49.046;11.920;2023-05-28T09:42:04;22.30;41.50
60495;DHT22;46342;49.046;11.920;2023-05-28T09:44:35;22.50;41.00
60495;DHT22;46342;49.046;11.920;2023-05-28T09:47:01;22.50;41.20
60495;DHT22;46342;49.046;11.920;2023-05-28T09:49:36;22.60;41.20
60495;DHT22;46342;49.046;11.920;2023-05-28T09:52:04;22.70;41.10
60495;DHT22;46342;49.046;11.920;2023-05-28T09:54:31;22.80;40.70
60495;DHT22;46342;49.046;11.920;2023-05-28T09:57:01;22.90;40.80
60495;DHT22;46342;49.046;11.920;2023-05-28T09:59:29;23.00;40.60
60495;DHT22;46342;49.046;11.920;2023-05-28T10:02:00;23.10;40.80
60495;DHT22;46342;49.046;11.920;2023-05-28T10:04:33;23.20;40.60
60495;DHT22;46342;49.046;11.920;2023-05-28T10:06:59;23.30;39.90
60495;DHT22;46342;49.046;11.920;2023-05-28T10:09:26;23.40;40.40
60495;DHT22;46342;49.046;11.920;2023-05-28T10:12:01;23.50;39.90
60495;DHT22;46342;49.046;11.920;2023-05-28T10:14:28;23.60;39.40
60495;DHT22;46342;49.046;11.920;2023-05-28T10:16:55;23.70;39.90
60495;DHT22;46342;49.046;11.920;2023-05-28T10:19:21;23.70;39.80
60495;DHT22;46342;49.046;11.920;2023-05-28T10:21:47;23.80;39.90
60495;DHT22;46342;49.046;11.920;2023-05-28T10:24:13;23.90;39.80
60495;DHT22;46342;49.046;11.920;2023-05-28T10:26:39;24.00;39.60
60495;DHT22;46342;49.046;11.920;2023-05-28T10:29:06;24.10;39.30
60495;DHT22;46342;49.046;11.920;2023-05-28T10:31:35;24.20;38.90
60495;DHT22;46342;49.046;11.920;2023-05-28T10:34:01;24.30;39.10
60495;DHT22;46342;49.046;11.920;2023-05-28T10:36:27;24.40;39.20
60495;DHT22;46342;49.046;11.920;2023-05-28T10:41:20;24.50;38.80
60495;DHT22;46342;49.046;11.920;2023-05-28T10:43:50;24.60;38.60
60495;DHT22;46342;49.046;11.920;2023-05-28T10:51:58;24.90;36.70
60495;DHT22;46342;49.046;11.920;2023-05-28T10:59:45;25.00;37.20
60495;DHT22;46342;49.046;11.920;2023-05-28T11:02:12;25.10;36.90
60495;DHT22;46342;49.046;11.920;2023-05-28T11:04:38;25.20;37.30
60495;DHT22;46342;49.046;11.920;2023-05-28T11:07:05;25.30;37.20
60495;DHT22;46342;49.046;11.920;2023-05-28T11:09:31;25.40;37.10
60495;DHT22;46342;49.046;11.920;2023-05-28T11:11:58;25.40;36.90
60495;DHT22;46342;49.046;11.920;2023-05-28T11:14:35;25.50;36.50
60495;DHT22;46342;49.046;11.920;2023-05-28T11:17:01;25.60;35.70
60495;DHT22;46342;49.046;11.920;2023-05-28T11:19:26;25.70;36.50
60495;DHT22;46342;49.046;11.920;2023-05-28T11:21:53;25.80;36.40
60495;DHT22;46342;49.046;11.920;2023-05-28T11:24:19;25.90;36.40
60495;DHT22;46342;49.046;11.920;2023-05-28T11:26:44;26.00;36.10
60495;DHT22;46342;49.046;11.920;2023-05-28T11:29:12;26.10;36.00
60495;DHT22;46342;49.046;11.920;2023-05-28T11:31:41;26.20;35.90
60495;DHT22;46342;49.046;11.920;2023-05-28T11:34:08;26.30;35.60
60495;DHT22;46342;49.046;11.920;2023-05-28T11:36:41;26.40;35.60
60495;DHT22;46342;49.046;11.920;2023-05-28T11:39:07;26.50;35.10
60495;DHT22;46342;49.046;11.920;2023-05-28T11:41:33;26.60;35.70
60495;DHT22;46342;49.046;11.920;2023-05-28T11:43:59;26.70;35.50
60495;DHT22;46342;49.046;11.920;2023-05-28T11:46:25;26.70;35.30
60495;DHT22;46342;49.046;11.920;2023-05-28T11:48:51;26.80;35.40
60495;DHT22;46342;49.046;11.920;2023-05-28T11:51:19;26.90;35.10
60495;DHT22;46342;49.046;11.920;2023-05-28T11:53:46;27.00;34.70
60495;DHT22;46342;49.046;11.920;2023-05-28T11:56:12;27.00;34.90
60495;DHT22;46342;49.046;11.920;2023-05-28T11:58:38;27.10;34.80
60495;DHT22;46342;49.046;11.920;2023-05-28T12:01:13;27.20;34.70
60495;DHT22;46342;49.046;11.920;2023-05-28T12:03:40;27.30;34.30
60495;DHT22;46342;49.046;11.920;2023-05-28T12:06:05;27.30;34.30
60495;DHT22;46342;49.046;11.920;2023-05-28T12:08:31;27.30;34.00
60495;DHT22;46342;49.046;11.920;2023-05-28T12:11:02;27.30;34.00
60495;DHT22;46342;49.046;11.920;2023-05-28T12:13:32;27.40;33.80
60495;DHT22;46342;49.046;11.920;2023-05-28T12:16:11;27.40;34.00
60495;DHT22;46342;49.046;11.920;2023-05-28T12:18:43;27.50;33.90
60495;DHT22;46342;49.046;11.920;2023-05-28T12:21:14;27.70;33.90
60495;DHT22;46342;49.046;11.920;2023-05-28T12:23:44;27.70;34.20
60495;DHT22;46342;49.046;11.920;2023-05-28T12:26:10;27.80;34.40
60495;DHT22;46342;49.046;11.920;2023-05-28T12:28:37;27.90;34.20
60495;DHT22;46342;49.046;11.920;2023-05-28T12:31:05;27.90;34.10
60495;DHT22;46342;49.046;11.920;2023-05-28T12:33:31;28.00;34.00
60495;DHT22;46342;49.046;11.920;2023-05-28T12:35:56;28.10;33.90
60495;DHT22;46342;49.046;11.920;2023-05-28T12:38:23;28.20;33.90
60495;DHT22;46342;49.046;11.920;2023-05-28T12:40:48;28.20;33.60
60495;DHT22;46342;49.046;11.920;2023-05-28T12:43:14;28.30;33.70
60495;DHT22;46342;49.046;11.920;2023-05-28T12:45:40;28.40;33.30
60495;DHT22;46342;49.046;11.920;2023-05-28T12:48:05;28.40;33.30
60495;DHT22;46342;49.046;11.920;2023-05-28T12:50:33;28.50;33.00
60495;DHT22;46342;49.046;11.920;2023-05-28T12:52:59;28.50;33.00
60495;DHT22;46342;49.046;11.920;2023-05-28T12:55:25;28.60;33.00
60495;DHT22;46342;49.046;11.920;2023-05-28T12:57:51;28.60;32.70
60495;DHT22;46342;49.046;11.920;2023-05-28T13:00:16;28.70;32.40
60495;DHT22;46342;49.046;11.920;2023-05-28T13:02:42;28.70;32.40
60495;DHT22;46342;49.046;11.920;2023-05-28T13:05:08;28.80;32.50
60495;DHT22;46342;49.046;11.920;2023-05-28T13:07:34;28.80;32.50
60495;DHT22;46342;49.046;11.920;2023-05-28T13:09:59;28.80;32.20
60495;DHT22;46342;49.046;11.920;2023-05-28T13:12:25;28.90;32.30
60495;DHT22;46342;49.046;11.920;2023-05-28T13:14:51;29.00;32.10
60495;DHT22;46342;49.046;11.920;2023-05-28T13:17:16;29.00;32.00
60495;DHT22;46342;49.046;11.920;2023-05-28T13:19:42;29.00;31.70
60495;DHT22;46342;49.046;11.920;2023-05-28T13:22:07;29.00;31.60
60495;DHT22;46342;49.046;11.920;2023-05-28T13:24:36;29.00;31.40
60495;DHT22;46342;49.046;11.920;2023-05-28T13:27:02;29.10;31.50
60495;DHT22;46342;49.046;11.920;2023-05-28T13:29:27;29.10;31.60
60495;DHT22;46342;49.046;11.920;2023-05-28T13:31:53;29.10;31.60
60495;DHT22;46342;49.046;11.920;2023-05-28T13:34:18;29.20;31.40
60495;DHT22;46342;49.046;11.920;2023-05-28T13:36:44;29.20;31.30
60495;DHT22;46342;49.046;11.920;2023-05-28T13:39:09;29.30;31.20
60495;DHT22;46342;49.046;11.920;2023-05-28T13:41:35;29.30;31.10
60495;DHT22;46342;49.046;11.920;2023-05-28T13:44:00;29.40;30.90
60495;DHT22;46342;49.046;11.920;2023-05-28T13:46:27;29.40;31.10
60495;DHT22;46342;49.046;11.920;2023-05-28T13:48:53;29.40;31.00
60495;DHT22;46342;49.046;11.920;2023-05-28T13:51:19;29.40;30.70
60495;DHT22;46342;49.046;11.920;2023-05-28T13:53:45;29.50;30.70
60495;DHT22;46342;49.046;11.920;2023-05-28T13:56:12;29.40;30.50
60495;DHT22;46342;49.046;11.920;2023-05-28T13:58:38;29.40;30.30
60495;DHT22;46342;49.046;11.920;2023-05-28T14:01:04;29.50;30.40
60495;DHT22;46342;49.046;11.920;2023-05-28T14:03:29;29.50;30.40
60495;DHT22;46342;49.046;11.920;2023-05-28T14:05:55;29.50;30.50
60495;DHT22;46342;49.046;11.920;2023-05-28T14:08:21;29.50;30.60
60495;DHT22;46342;49.046;11.920;2023-05-28T14:10:48;29.50;30.40
60495;DHT22;46342;49.046;11.920;2023-05-28T14:13:13;29.60;30.50
60495;DHT22;46342;49.046;11.920;2023-05-28T14:15:39;29.60;30.40
60495;DHT22;46342;49.046;11.920;2023-05-28T14:18:05;29.70;30.50
60495;DHT22;46342;49.046;11.920;2023-05-28T14:20:31;29.70;30.40
60495;DHT22;46342;49.046;11.920;2023-05-28T14:23:00;29.70;30.40
60495;DHT22;46342;49.046;11.920;2023-05-28T14:25:26;29.80;30.20
60495;DHT22;46342;49.046;11.920;2023-05-28T14:27:52;29.90;30.20
60495;DHT22;46342;49.046;11.920;2023-05-28T14:30:17;29.90;30.10
60495;DHT22;46342;49.046;11.920;2023-05-28T14:32:43;29.90;30.10
60495;DHT22;46342;49.046;11.920;2023-05-28T14:35:09;30.00;30.10
60495;DHT22;46342;49.046;11.920;2023-05-28T14:37:35;30.00;30.00
60495;DHT22;46342;49.046;11.920;2023-05-28T14:40:00;30.10;30.00
60495;DHT22;46342;49.046;11.920;2023-05-28T14:42:26;30.10;29.80
60495;DHT22;46342;49.046;11.920;2023-05-28T14:44:51;30.20;29.80
60495;DHT22;46342;49.046;11.920;2023-05-28T14:47:17;30.20;29.70
60495;DHT22;46342;49.046;11.920;2023-05-28T14:49:42;30.20;29.40
60495;DHT22;46342;49.046;11.920;2023-05-28T14:52:28;30.20;29.40
60495;DHT22;46342;49.046;11.920;2023-05-28T14:54:54;30.30;28.90
60495;DHT22;46342;49.046;11.920;2023-05-28T14:57:21;30.30;29.30
60495;DHT22;46342;49.046;11.920;2023-05-28T14:59:47;30.30;29.20
60495;DHT22;46342;49.046;11.920;2023-05-28T15:02:14;30.30;29.40
60495;DHT22;46342;49.046;11.920;2023-05-28T15:04:41;30.30;29.20
60495;DHT22;46342;49.046;11.920;2023-05-28T15:07:07;30.30;29.10
60495;DHT22;46342;49.046;11.920;2023-05-28T15:09:33;30.30;29.00
60495;DHT22;46342;49.046;11.920;2023-05-28T15:11:59;30.40;28.90
60495;DHT22;46342;49.046;11.920;2023-05-28T15:14:24;30.40;29.00
60495;DHT22;46342;49.046;11.920;2023-05-28T15:16:51;30.40;29.00
60495;DHT22;46342;49.046;11.920;2023-05-28T15:19:17;30.40;29.10
60495;DHT22;46342;49.046;11.920;2023-05-28T15:21:42;30.40;28.90
60495;DHT22;46342;49.046;11.920;2023-05-28T15:24:08;30.40;29.00